Details From KUES - Waukesha Co
To KRYV - Watertown Muni
Flight Number -
Tags Routegen Generated
Created
Modified
Stats Distance 28 nm / 52 km
Max Altitude 100 ft / 30 m
Waypoints 5
Social Downloads 0
Likes 0
Share VATSIM

Download

Looking for another format? Having issues loading an existing format? Contact us
Advertisement - Login to hide

Notes

Departing runway 28 KUES. Arriving runway 5 KRYV.

Route

KUES +43.06_-088.35 +43.16_-088.45 +43.26_-088.56 KRYV

ID Type Via Altitude Latitude Longitude Leg Dist Tot Dist Heading (true) Name
O KUES APT - 0 ft / 0 m 43.04394˚ -88.24972˚ - 0 nm - -
+43.06_-088.35 DME - 100 ft / 30 m 43.05895˚ -88.34660˚ 4 nm 4 nm 282° / 282° -
+43.16_-088.45 DME - 100 ft / 30 m 43.15912˚ -88.45257˚ 7 nm 11 nm 322° / 322° -
+43.26_-088.56 DME - 100 ft / 30 m 43.25929˚ -88.55855˚ 7 nm 19 nm 322° / 322° -
O KRYV APT - 0 ft / 0 m 43.17250˚ -88.71747˚ 8 nm 28 nm 233° / 233° Watertown Muni

Altitude Profile

Advertisement - Login to hide

KUES

Details ICAO KUES
Name Waukesha Co
Region United States
Timezone America/Chicago (UTC-6.0)
Stats Elevation 911 ft / 278 m (AMSL)
Location 43.040641° -88.236487°
Runways 2
Magnetic Variation 3.638° W

METAR

KUES 141645Z 27003KT 10SM SKC M08/M12 A3007

Decode

TAF

TAF KUES 141128Z 1412/1512 32006KT P6SM FEW030 FM150000 24005KT P6SM VCSH BKN080 FM150500 24006KT P6SM OVC040

Decode

Departure Runways

ID Width Length Bearing (true) Bearing (mag) Surface Threshold Offset Overrun Length
10 98 ft / 30 m 5,837 ft / 1,779 m 101.99° 105.63° Concrete 0 ft / 0 m 0 ft / 0 m
18 75 ft / 23 m 3,602 ft / 1,098 m 185.25° 188.89° Asphalt 0 ft / 0 m 0 ft / 0 m
28 98 ft / 30 m 5,837 ft / 1,779 m 282.00° 285.64° Concrete 0 ft / 0 m 0 ft / 0 m
36 75 ft / 23 m 3,602 ft / 1,098 m 5.25° 8.89° Asphalt 0 ft / 0 m 0 ft / 0 m

KRYV

Details ICAO KRYV
Name Watertown Muni
Region United States
Timezone America/Chicago (UTC-6.0)
Stats Elevation 833 ft / 254 m (AMSL)
Location 43.169845° -88.722947°
Runways 2
Magnetic Variation 3.266° W

METAR

KRYV 141655Z AUTO 00000KT 10SM CLR M07/M11 A3007 RMK AO2 T10741108

Decode

TAF

Not found

Destination Runways

ID Width Length Bearing (true) Bearing (mag) Surface Threshold Offset Overrun Length
05 75 ft / 23 m 4,425 ft / 1,349 m 53.09° 56.36° Asphalt 200 ft / 61 m 400 ft / 122 m
11 75 ft / 23 m 2,817 ft / 859 m 113.31° 116.58° Asphalt 0 ft / 0 m 0 ft / 0 m
23 75 ft / 23 m 4,425 ft / 1,349 m 233.10° 236.37° Asphalt 0 ft / 0 m 400 ft / 122 m
29 75 ft / 23 m 2,817 ft / 859 m 293.32° 296.59° Asphalt 0 ft / 0 m 0 ft / 0 m